Time;durP1;ratioP1;P1;durP2;ratioP2;P2;SDS_P1;SDS_P2;PMS_P1;PMS_P2;Temp;Humidity;BMP_temperature;BMP_pressure;BME280_temperature;BME280_humidity;BME280_pressure;Samples;Min_cycle;Max_cycle;Signal;HPM_P1;HPM_P2
2021/09/02 00:00:50;;;;;;;;;;;16.00;99.90;;;;;;5076295;28;19932;-91
2021/09/02 00:03:16;;;;;;;;;;;16.00;99.90;;;;;;5064151;28;20379;-91
2021/09/02 00:05:41;;;;;;;;;;;16.00;99.90;;;;;;5063842;28;19931;-92
2021/09/02 00:08:07;;;;;;;;;;;16.00;99.90;;;;;;5054293;28;19921;-91
2021/09/02 00:10:33;;;;;;;;;;;15.90;99.90;;;;;;5043987;28;20466;-92
2021/09/02 00:12:59;;;;;;;;;;;15.90;99.90;;;;;;5031174;28;19928;-92
2021/09/02 00:15:24;;;;;;;;;;;15.90;99.90;;;;;;5053191;28;19932;-91
2021/09/02 00:17:50;;;;;;;;;;;15.90;99.90;;;;;;5051522;28;20019;-92
2021/09/02 00:20:16;;;;;;;;;;;15.90;99.90;;;;;;5067149;28;19924;-92
2021/09/02 00:22:42;;;;;;;;;;;16.00;99.90;;;;;;5053420;28;19924;-92
2021/09/02 00:25:08;;;;;;;;;;;16.00;99.90;;;;;;5071556;28;20413;-92
2021/09/02 00:27:34;;;;;;;;;;;16.00;99.90;;;;;;5072021;28;19924;-92
2021/09/02 00:29:59;;;;;;;;;;;16.00;99.90;;;;;;5045910;28;20453;-92
2021/09/02 00:32:25;;;;;;;;;;;16.00;99.90;;;;;;5036827;28;19951;-91
2021/09/02 00:34:50;;;;;;;;;;;16.00;99.90;;;;;;5071626;28;19920;-90
2021/09/02 00:37:16;;;;;;;;;;;16.00;99.90;;;;;;5038774;28;19924;-92
2021/09/02 00:39:42;;;;;;;;;;;16.00;99.90;;;;;;5056656;28;19920;-92
2021/09/02 00:42:07;;;;;;;;;;;16.00;99.90;;;;;;5037578;28;20388;-91
2021/09/02 00:44:34;;;;;;;;;;;16.00;99.90;;;;;;5052675;28;19916;-92
2021/09/02 00:47:01;;;;;;;;;;;16.00;99.90;;;;;;5051019;28;19967;-92
2021/09/02 00:49:28;;;;;;;;;;;16.00;99.90;;;;;;5070009;28;19924;-92
2021/09/02 00:51:53;;;;;;;;;;;16.00;99.90;;;;;;5062570;28;19916;-92
2021/09/02 00:54:19;;;;;;;;;;;16.00;99.90;;;;;;5073282;28;19931;-90
2021/09/02 00:56:45;;;;;;;;;;;16.00;99.90;;;;;;5043001;28;19924;-91
2021/09/02 00:59:10;;;;;;;;;;;16.00;99.90;;;;;;5035660;28;20015;-92
2021/09/02 01:01:36;;;;;;;;;;;16.00;99.90;;;;;;5036021;28;19924;-92
2021/09/02 01:04:03;;;;;;;;;;;16.00;99.90;;;;;;5045654;28;19924;-91
2021/09/02 01:06:29;;;;;;;;;;;16.00;99.90;;;;;;5041799;28;20023;-92
2021/09/02 01:08:55;;;;;;;;;;;16.00;99.90;;;;;;5043626;28;20380;-92
2021/09/02 01:11:22;;;;;;;;;;;16.00;99.90;;;;;;5048252;28;20015;-92
2021/09/02 01:13:47;;;;;;;;;;;16.00;99.90;;;;;;5029706;28;19928;-91
2021/09/02 01:16:13;;;;;;;;;;;16.00;99.90;;;;;;5050238;28;20409;-92
2021/09/02 01:18:38;;;;;;;;;;;16.00;99.90;;;;;;5047182;28;19974;-91
2021/09/02 01:21:04;;;;;;;;;;;16.00;99.90;;;;;;5036074;28;20371;-92
2021/09/02 01:23:33;;;;;;;;;;;16.00;99.90;;;;;;5035929;28;20337;-92
2021/09/02 01:25:59;;;;;;;;;;;16.00;99.90;;;;;;5052796;28;19924;-92
2021/09/02 01:28:25;;;;;;;;;;;16.00;99.90;;;;;;5051967;28;19947;-92
2021/09/02 01:30:50;;;;;;;;;;;16.00;99.90;;;;;;5055220;28;20386;-92
2021/09/02 01:33:16;;;;;;;;;;;16.00;99.90;;;;;;5038841;28;19929;-91
2021/09/02 01:35:42;;;;;;;;;;;16.00;99.90;;;;;;5046642;28;19920;-90
2021/09/02 01:38:08;;;;;;;;;;;16.00;99.90;;;;;;5068591;28;19927;-91
2021/09/02 01:40:35;;;;;;;;;;;15.90;99.90;;;;;;5051505;28;19924;-92
2021/09/02 01:43:01;;;;;;;;;;;16.00;99.90;;;;;;5038967;28;19931;-92
2021/09/02 01:45:27;;;;;;;;;;;15.90;99.90;;;;;;5040172;28;19926;-92
2021/09/02 01:47:57;;;;;;;;;;;15.90;99.90;;;;;;5042298;28;19921;-92
2021/09/02 01:50:23;;;;;;;;;;;15.90;99.90;;;;;;5035713;28;19924;-92
2021/09/02 01:52:49;;;;;;;;;;;15.90;99.90;;;;;;5041920;28;19935;-91
2021/09/02 01:55:15;;;;;;;;;;;15.90;99.90;;;;;;5052471;28;20389;-92
2021/09/02 01:57:41;;;;;;;;;;;15.90;99.90;;;;;;5043465;28;19960;-91
2021/09/02 02:00:08;;;;;;;;;;;16.00;99.90;;;;;;5065051;28;19924;-91
2021/09/02 02:02:34;;;;;;;;;;;15.90;99.90;;;;;;5045461;28;20372;-90
2021/09/02 02:04:59;;;;;;;;;;;15.90;99.90;;;;;;5081089;28;20016;-91
2021/09/02 02:07:25;;;;;;;;;;;16.00;99.90;;;;;;5046437;28;19964;-92
2021/09/02 02:09:51;;;;;;;;;;;15.90;99.90;;;;;;5052662;28;19924;-92
2021/09/02 02:12:16;;;;;;;;;;;15.90;99.90;;;;;;5038798;28;20314;-91
2021/09/02 02:14:42;;;;;;;;;;;15.90;99.90;;;;;;5055764;28;19927;-92
2021/09/02 02:17:08;;;;;;;;;;;15.90;99.90;;;;;;5037707;28;19947;-92
2021/09/02 02:19:33;;;;;;;;;;;15.90;99.90;;;;;;5048193;28;19924;-92
2021/09/02 02:21:59;;;;;;;;;;;15.90;99.90;;;;;;5059035;28;19963;-92
2021/09/02 02:24:24;;;;;;;;;;;15.90;99.90;;;;;;5058271;28;20458;-91
2021/09/02 02:26:50;;;;;;;;;;;15.90;99.90;;;;;;5093014;28;19924;-91
2021/09/02 02:29:15;;;;;;;;;;;15.90;99.90;;;;;;5037650;28;19931;-92
2021/09/02 02:31:41;;;;;;;;;;;15.90;99.90;;;;;;5052159;28;19928;-92
2021/09/02 02:34:07;;;;;;;;;;;15.90;99.90;;;;;;5060623;28;20365;-92
2021/09/02 02:36:32;;;;;;;;;;;15.90;99.90;;;;;;5073117;28;19959;-92
2021/09/02 02:38:58;;;;;;;;;;;15.90;99.90;;;;;;5047896;28;20410;-92
2021/09/02 02:41:24;;;;;;;;;;;15.90;99.90;;;;;;5048616;28;19932;-92
2021/09/02 02:43:50;;;;;;;;;;;15.90;99.90;;;;;;5063045;28;20564;-92
2021/09/02 02:46:15;;;;;;;;;;;15.90;99.90;;;;;;5067005;28;19924;-91
2021/09/02 02:48:41;;;;;;;;;;;15.90;99.90;;;;;;5054055;28;19974;-91
2021/09/02 02:51:06;;;;;;;;;;;15.90;99.90;;;;;;5037221;28;19927;-91
2021/09/02 02:53:32;;;;;;;;;;;15.90;99.90;;;;;;5054346;28;19924;-92
2021/09/02 02:55:57;;;;;;;;;;;15.90;99.90;;;;;;5038736;28;19927;-91
2021/09/02 02:58:23;;;;;;;;;;;15.90;99.90;;;;;;5052313;28;19972;-91
2021/09/02 03:00:48;;;;;;;;;;;16.00;99.90;;;;;;5038244;28;19932;-92
2021/09/02 03:03:14;;;;;;;;;;;16.00;99.90;;;;;;5035145;28;19928;-92
2021/09/02 03:05:40;;;;;;;;;;;16.00;99.90;;;;;;5069359;28;19939;-92
2021/09/02 03:08:05;;;;;;;;;;;16.00;99.90;;;;;;5094239;27;19924;-92
2021/09/02 03:10:31;;;;;;;;;;;15.90;99.90;;;;;;5074331;28;19977;-91
2021/09/02 03:12:57;;;;;;;;;;;16.00;99.90;;;;;;5075621;27;19924;-92
2021/09/02 03:15:23;;;;;;;;;;;15.90;99.90;;;;;;5090112;28;19920;-92
2021/09/02 03:17:49;;;;;;;;;;;16.00;99.90;;;;;;5057982;28;19931;-92
2021/09/02 03:20:15;;;;;;;;;;;16.00;99.90;;;;;;5068039;27;19930;-91
2021/09/02 03:22:41;;;;;;;;;;;16.00;99.90;;;;;;5066842;28;20367;-92
2021/09/02 03:25:06;;;;;;;;;;;16.00;99.90;;;;;;5062806;28;19919;-92
2021/09/02 03:27:32;;;;;;;;;;;16.00;99.90;;;;;;5060885;28;19924;-91
2021/09/02 03:29:58;;;;;;;;;;;16.00;99.90;;;;;;5068391;28;19924;-92
2021/09/02 03:32:23;;;;;;;;;;;15.90;99.90;;;;;;5057893;27;20385;-92
2021/09/02 03:34:49;;;;;;;;;;;16.00;99.90;;;;;;5090764;28;19959;-92
2021/09/02 03:37:15;;;;;;;;;;;15.90;99.90;;;;;;5060941;28;19974;-92
2021/09/02 03:39:40;;;;;;;;;;;16.00;99.90;;;;;;5053878;28;19931;-92
2021/09/02 03:42:06;;;;;;;;;;;16.00;99.90;;;;;;5074166;28;20738;-92
2021/09/02 03:44:32;;;;;;;;;;;16.00;99.90;;;;;;5080940;28;19920;-92
2021/09/02 03:46:57;;;;;;;;;;;16.00;99.90;;;;;;5073730;28;19931;-92
2021/09/02 03:49:23;;;;;;;;;;;16.00;99.90;;;;;;5059420;27;19924;-91
2021/09/02 03:51:49;;;;;;;;;;;16.00;99.90;;;;;;5087220;28;19920;-92
2021/09/02 03:54:14;;;;;;;;;;;16.00;99.90;;;;;;5070977;27;19974;-92
2021/09/02 03:56:40;;;;;;;;;;;16.00;99.90;;;;;;5079287;28;19924;-92
2021/09/02 03:59:05;;;;;;;;;;;15.90;99.90;;;;;;5042259;27;20299;-92
2021/09/02 04:01:31;;;;;;;;;;;15.90;99.90;;;;;;5092476;27;19962;-91
2021/09/02 04:03:56;;;;;;;;;;;15.90;99.90;;;;;;5091050;27;20014;-92
2021/09/02 04:06:22;;;;;;;;;;;15.90;99.90;;;;;;5076852;28;19989;-92
2021/09/02 04:08:48;;;;;;;;;;;15.90;99.90;;;;;;5077191;28;20006;-92
2021/09/02 04:11:13;;;;;;;;;;;15.90;99.90;;;;;;5042281;28;19931;-91
2021/09/02 04:13:39;;;;;;;;;;;15.90;99.90;;;;;;5094050;28;19947;-92
2021/09/02 04:16:04;;;;;;;;;;;15.90;99.90;;;;;;5091156;28;19955;-91
2021/09/02 04:18:30;;;;;;;;;;;15.90;99.90;;;;;;5076985;28;19927;-91
2021/09/02 04:20:57;;;;;;;;;;;15.90;99.90;;;;;;5071126;27;19928;-92
2021/09/02 04:23:23;;;;;;;;;;;15.90;99.90;;;;;;5066427;28;19973;-92
2021/09/02 04:25:48;;;;;;;;;;;15.90;99.90;;;;;;5082158;27;19927;-91
2021/09/02 04:28:14;;;;;;;;;;;15.90;99.90;;;;;;5078080;27;19959;-92
2021/09/02 04:30:40;;;;;;;;;;;15.90;99.90;;;;;;5095368;28;19928;-92
2021/09/02 04:33:05;;;;;;;;;;;15.90;99.90;;;;;;5056374;28;19927;-92
2021/09/02 04:35:31;;;;;;;;;;;15.90;99.90;;;;;;5072691;28;19926;-92
2021/09/02 04:37:56;;;;;;;;;;;15.90;99.90;;;;;;5056418;28;19993;-92
2021/09/02 04:40:22;;;;;;;;;;;15.90;99.90;;;;;;5072525;28;19934;-92
2021/09/02 04:42:48;;;;;;;;;;;15.90;99.90;;;;;;5089765;28;20367;-92
2021/09/02 04:45:13;;;;;;;;;;;15.90;99.90;;;;;;5064378;27;19919;-91
2021/09/02 04:47:39;;;;;;;;;;;15.80;99.90;;;;;;5082084;28;19920;-92
2021/09/02 04:50:05;;;;;;;;;;;15.80;99.90;;;;;;5068484;27;20449;-92
2021/09/02 04:52:31;;;;;;;;;;;15.80;99.90;;;;;;5075858;28;19930;-91
2021/09/02 04:54:57;;;;;;;;;;;15.80;99.90;;;;;;5075893;27;19924;-92
2021/09/02 04:57:22;;;;;;;;;;;15.80;99.90;;;;;;5083497;27;19924;-92
2021/09/02 04:59:48;;;;;;;;;;;15.80;99.90;;;;;;5078414;27;19924;-92
2021/09/02 05:02:14;;;;;;;;;;;15.80;99.90;;;;;;5053538;28;20052;-91
2021/09/02 05:04:40;;;;;;;;;;;15.80;99.90;;;;;;5078943;28;19927;-92
2021/09/02 05:07:05;;;;;;;;;;;15.80;99.90;;;;;;5075426;27;19923;-91
2021/09/02 05:09:31;;;;;;;;;;;15.80;99.90;;;;;;5056294;28;19916;-91
2021/09/02 05:11:57;;;;;;;;;;;15.80;99.90;;;;;;5040533;28;20045;-94
2021/09/02 05:14:22;;;;;;;;;;;15.80;99.90;;;;;;5062885;27;19923;-92
2021/09/02 05:16:48;;;;;;;;;;;15.80;99.90;;;;;;5053248;28;19928;-93
2021/09/02 05:19:13;;;;;;;;;;;15.80;99.90;;;;;;5044146;28;19920;-91
2021/09/02 05:21:39;;;;;;;;;;;15.80;99.90;;;;;;5070362;28;20371;-93
2021/09/02 05:24:05;;;;;;;;;;;15.80;99.90;;;;;;5076407;28;19919;-92
2021/09/02 05:26:30;;;;;;;;;;;15.80;99.90;;;;;;5094891;28;19963;-93
2021/09/02 05:28:56;;;;;;;;;;;15.70;99.90;;;;;;5090626;28;19971;-91
2021/09/02 05:31:22;;;;;;;;;;;15.80;99.90;;;;;;5090540;28;20246;-92
2021/09/02 05:33:47;;;;;;;;;;;15.70;99.90;;;;;;5077766;27;19959;-92
2021/09/02 05:36:13;;;;;;;;;;;15.80;99.90;;;;;;5081157;28;19919;-91
2021/09/02 05:38:38;;;;;;;;;;;15.80;99.90;;;;;;5083956;28;20339;-92
2021/09/02 05:41:04;;;;;;;;;;;15.80;99.90;;;;;;5065748;28;19923;-91
2021/09/02 05:43:30;;;;;;;;;;;15.80;99.90;;;;;;5082019;28;19929;-92
2021/09/02 05:45:55;;;;;;;;;;;15.80;99.90;;;;;;5055662;28;19932;-92
2021/09/02 05:48:21;;;;;;;;;;;15.80;99.90;;;;;;5075043;28;20359;-92
2021/09/02 05:50:46;;;;;;;;;;;15.80;99.90;;;;;;5074972;28;19930;-92
2021/09/02 05:53:12;;;;;;;;;;;15.80;99.90;;;;;;5058858;28;19981;-92
2021/09/02 05:55:38;;;;;;;;;;;15.80;99.90;;;;;;5058998;28;19985;-91
2021/09/02 05:58:04;;;;;;;;;;;15.80;99.90;;;;;;5076091;28;19930;-92
2021/09/02 06:00:29;;;;;;;;;;;15.80;99.90;;;;;;5075379;28;19920;-92
2021/09/02 06:02:55;;;;;;;;;;;15.80;99.90;;;;;;5059084;28;20286;-91
2021/09/02 06:05:21;;;;;;;;;;;15.80;99.90;;;;;;5071347;28;19927;-91
2021/09/02 06:07:46;;;;;;;;;;;15.80;99.90;;;;;;5072333;28;19924;-92
2021/09/02 06:10:12;;;;;;;;;;;15.80;99.90;;;;;;5071643;28;19928;-91
2021/09/02 06:12:38;;;;;;;;;;;15.80;99.90;;;;;;5072185;28;19964;-91
2021/09/02 06:15:08;;;;;;;;;;;15.80;99.90;;;;;;5087782;28;19966;-91
2021/09/02 06:17:33;;;;;;;;;;;15.90;99.90;;;;;;5032557;28;19924;-91
2021/09/02 06:19:59;;;;;;;;;;;15.80;99.90;;;;;;5046903;28;19931;-92
2021/09/02 06:22:25;;;;;;;;;;;15.90;99.90;;;;;;5035752;28;19962;-92
2021/09/02 06:24:50;;;;;;;;;;;15.90;99.90;;;;;;5031768;28;20338;-92
2021/09/02 06:27:16;;;;;;;;;;;15.90;99.90;;;;;;5049125;28;19956;-92
2021/09/02 06:29:42;;;;;;;;;;;15.90;99.90;;;;;;5063679;28;20306;-92
2021/09/02 06:32:07;;;;;;;;;;;15.90;99.90;;;;;;5055348;28;19924;-92
2021/09/02 06:34:33;;;;;;;;;;;15.90;99.90;;;;;;5055109;28;19920;-91
2021/09/02 06:36:58;;;;;;;;;;;15.90;99.90;;;;;;5029908;28;19932;-92
2021/09/02 06:39:24;;;;;;;;;;;15.90;99.90;;;;;;5038882;28;20007;-92
2021/09/02 06:41:50;;;;;;;;;;;15.90;99.90;;;;;;5055711;28;19928;-91
2021/09/02 06:44:15;;;;;;;;;;;15.90;99.90;;;;;;5054529;28;19924;-91
2021/09/02 06:46:41;;;;;;;;;;;15.90;99.90;;;;;;5055308;28;19927;-91
2021/09/02 06:49:06;;;;;;;;;;;15.90;99.90;;;;;;5054757;28;20406;-91
2021/09/02 06:51:32;;;;;;;;;;;15.90;99.90;;;;;;5074998;28;19927;-91
2021/09/02 06:53:57;;;;;;;;;;;15.90;99.90;;;;;;5058204;28;20311;-92
2021/09/02 06:56:23;;;;;;;;;;;16.00;99.90;;;;;;5069085;28;19925;-92
2021/09/02 06:58:49;;;;;;;;;;;16.00;99.90;;;;;;5036032;28;20452;-92
2021/09/02 07:01:15;;;;;;;;;;;16.10;99.90;;;;;;5030109;28;19927;-92
2021/09/02 07:03:41;;;;;;;;;;;16.10;99.90;;;;;;5053955;28;19925;-91
2021/09/02 07:06:06;;;;;;;;;;;16.10;99.90;;;;;;5048606;28;19924;-96
2021/09/02 07:08:33;;;;;;;;;;;16.10;99.90;;;;;;5054986;28;20345;-95
2021/09/02 07:10:59;;;;;;;;;;;16.10;99.90;;;;;;5055106;28;19971;-94
2021/09/02 07:13:24;;;;;;;;;;;16.10;99.90;;;;;;5054702;28;19979;-96
2021/09/02 07:15:50;;;;;;;;;;;16.20;99.90;;;;;;5037420;28;19932;-95
2021/09/02 07:18:16;;;;;;;;;;;16.20;99.90;;;;;;5037661;28;19917;-96
2021/09/02 07:20:41;;;;;;;;;;;16.20;99.90;;;;;;5051590;28;19974;-96
2021/09/02 07:23:07;;;;;;;;;;;16.20;99.90;;;;;;5037585;28;19931;-96
2021/09/02 07:25:35;;;;;;;;;;;16.20;99.90;;;;;;5042183;28;19925;-90
2021/09/02 07:28:01;;;;;;;;;;;16.30;99.90;;;;;;5051233;28;19990;-91
2021/09/02 07:30:27;;;;;;;;;;;16.20;99.90;;;;;;5049668;28;20003;-91
2021/09/02 07:32:52;;;;;;;;;;;16.20;99.90;;;;;;5033121;28;19936;-91
2021/09/02 07:35:18;;;;;;;;;;;16.30;99.90;;;;;;5037072;28;19920;-91
2021/09/02 07:37:43;;;;;;;;;;;16.30;99.90;;;;;;5052673;28;20405;-92
2021/09/02 07:40:09;;;;;;;;;;;16.30;99.90;;;;;;5051958;28;19924;-91
2021/09/02 07:42:35;;;;;;;;;;;16.30;99.90;;;;;;5069355;28;19967;-91
2021/09/02 07:45:01;;;;;;;;;;;16.30;99.90;;;;;;5052447;28;19924;-92
2021/09/02 07:47:27;;;;;;;;;;;16.30;99.90;;;;;;5068998;28;19950;-91
2021/09/02 07:49:52;;;;;;;;;;;16.30;99.90;;;;;;5053540;28;20372;-92
2021/09/02 07:52:18;;;;;;;;;;;16.40;99.90;;;;;;5070504;28;19928;-92
2021/09/02 07:54:44;;;;;;;;;;;16.30;99.90;;;;;;5053979;28;20429;-91
2021/09/02 07:57:09;;;;;;;;;;;16.30;99.90;;;;;;5054379;28;19921;-91
2021/09/02 07:59:35;;;;;;;;;;;16.30;99.90;;;;;;5053360;28;20525;-91
2021/09/02 08:02:00;;;;;;;;;;;16.40;99.90;;;;;;5033675;28;19931;-91
2021/09/02 08:04:26;;;;;;;;;;;16.40;99.90;;;;;;5019616;28;20480;-90
2021/09/02 08:06:52;;;;;;;;;;;16.40;99.90;;;;;;5056609;28;19927;-90
2021/09/02 08:09:17;;;;;;;;;;;16.40;99.90;;;;;;5057370;28;19970;-91
2021/09/02 08:11:43;;;;;;;;;;;16.50;99.90;;;;;;5056668;28;20307;-91
2021/09/02 08:14:09;;;;;;;;;;;16.50;99.90;;;;;;5039987;28;19932;-89
2021/09/02 08:16:34;;;;;;;;;;;16.60;99.90;;;;;;5056697;28;20016;-91
2021/09/02 08:19:00;;;;;;;;;;;16.60;99.90;;;;;;5060937;28;19923;-91
2021/09/02 08:21:26;;;;;;;;;;;16.60;99.90;;;;;;5093804;28;19923;-91
2021/09/02 08:23:54;;;;;;;;;;;16.70;99.90;;;;;;5057030;28;19916;-91
2021/09/02 08:26:19;;;;;;;;;;;16.70;99.90;;;;;;5057607;28;20269;-92
2021/09/02 08:28:45;;;;;;;;;;;16.70;99.90;;;;;;5073901;28;19977;-91
2021/09/02 08:31:11;;;;;;;;;;;16.70;99.90;;;;;;5073488;28;19990;-91
2021/09/02 08:33:36;;;;;;;;;;;16.70;99.90;;;;;;5062300;28;19934;-91
2021/09/02 08:36:02;;;;;;;;;;;16.70;99.90;;;;;;5090973;28;20399;-91
2021/09/02 08:38:28;;;;;;;;;;;16.80;99.90;;;;;;5056372;28;19920;-91
2021/09/02 08:40:54;;;;;;;;;;;16.70;99.90;;;;;;5055839;28;19920;-91
2021/09/02 08:43:20;;;;;;;;;;;16.80;99.90;;;;;;5089739;28;19920;-92
2021/09/02 08:45:45;;;;;;;;;;;16.70;99.90;;;;;;5073258;28;19970;-92
2021/09/02 08:48:11;;;;;;;;;;;16.80;99.90;;;;;;5055933;28;20042;-90
2021/09/02 08:50:37;;;;;;;;;;;16.80;99.90;;;;;;5055977;28;20015;-90
2021/09/02 08:53:03;;;;;;;;;;;16.80;99.90;;;;;;5075870;28;19932;-91
2021/09/02 08:55:29;;;;;;;;;;;16.70;99.90;;;;;;5075997;28;19924;-91
2021/09/02 08:57:55;;;;;;;;;;;16.70;99.90;;;;;;5076624;28;20458;-91
2021/09/02 09:00:21;;;;;;;;;;;16.80;99.90;;;;;;5075339;28;19920;-90
2021/09/02 09:02:48;;;;;;;;;;;16.80;99.90;;;;;;5058873;28;19944;-91
2021/09/02 09:05:17;;;;;;;;;;;16.80;99.90;;;;;;5092189;28;19986;-90
2021/09/02 09:07:45;;;;;;;;;;;16.80;99.90;;;;;;5072523;28;19932;-90
2021/09/02 09:10:15;;;;;;;;;;;16.80;99.90;;;;;;5089200;28;20006;-90
2021/09/02 09:12:42;;;;;;;;;;;16.80;99.90;;;;;;5075017;28;19934;-90
2021/09/02 09:15:09;;;;;;;;;;;16.80;99.90;;;;;;5075633;28;20374;-91
2021/09/02 09:17:35;;;;;;;;;;;16.90;99.90;;;;;;5072668;28;20384;-91
2021/09/02 09:20:05;;;;;;;;;;;16.80;99.90;;;;;;5088513;28;19924;-91
2021/09/02 09:22:30;;;;;;;;;;;16.90;99.90;;;;;;5065407;28;20023;-91
2021/09/02 09:25:00;;;;;;;;;;;16.90;99.90;;;;;;5055443;28;20015;-91
2021/09/02 09:27:54;;;;;;;;;;;16.90;99.90;;;;;;5075999;28;19976;-91
2021/09/02 09:30:19;;;;;;;;;;;16.90;99.90;;;;;;5074555;28;19923;-91
2021/09/02 09:32:47;;;;;;;;;;;17.00;99.90;;;;;;5092625;28;20456;-91
2021/09/02 09:35:14;;;;;;;;;;;17.00;99.90;;;;;;5074693;28;19920;-90
2021/09/02 09:37:40;;;;;;;;;;;17.00;99.90;;;;;;5092847;28;19988;-91
2021/09/02 09:40:08;;;;;;;;;;;17.00;99.90;;;;;;5071578;28;20395;-91
2021/09/02 09:42:34;;;;;;;;;;;17.10;99.90;;;;;;5071897;28;19924;-92
2021/09/02 09:45:00;;;;;;;;;;;17.10;99.90;;;;;;5058623;28;20431;-92
2021/09/02 09:47:27;;;;;;;;;;;17.10;99.90;;;;;;5075405;28;19924;-91
2021/09/02 09:50:02;;;;;;;;;;;17.20;99.90;;;;;;5074944;28;19923;-91
2021/09/02 09:52:32;;;;;;;;;;;17.10;99.90;;;;;;5074760;28;19928;-91
2021/09/02 09:55:11;;;;;;;;;;;17.20;99.90;;;;;;5075694;28;19923;-91
2021/09/02 09:57:38;;;;;;;;;;;17.20;99.90;;;;;;5076213;28;19931;-91
2021/09/02 10:00:10;;;;;;;;;;;17.30;99.90;;;;;;5075064;28;19935;-92
2021/09/02 10:02:36;;;;;;;;;;;17.30;99.90;;;;;;5090141;28;19927;-92
2021/09/02 10:05:07;;;;;;;;;;;17.30;99.90;;;;;;5054487;28;19928;-91
2021/09/02 10:07:40;;;;;;;;;;;17.40;99.90;;;;;;5072116;28;19930;-91
2021/09/02 10:10:09;;;;;;;;;;;17.40;99.90;;;;;;5074966;28;20367;-92
2021/09/02 10:12:35;;;;;;;;;;;17.40;99.90;;;;;;5058657;28;19924;-91
2021/09/02 10:15:07;;;;;;;;;;;17.40;99.90;;;;;;5074751;28;19935;-92
2021/09/02 10:17:34;;;;;;;;;;;17.40;99.90;;;;;;5074967;28;20002;-91
2021/09/02 10:20:01;;;;;;;;;;;17.50;99.90;;;;;;5074715;28;19937;-91
2021/09/02 10:22:27;;;;;;;;;;;17.50;99.90;;;;;;5061397;28;19928;-91
2021/09/02 10:24:53;;;;;;;;;;;17.50;99.90;;;;;;5086535;28;19915;-90
2021/09/02 10:27:21;;;;;;;;;;;17.50;99.90;;;;;;5062612;28;20557;-91
2021/09/02 10:29:47;;;;;;;;;;;17.50;99.90;;;;;;5095561;28;19916;-92
2021/09/02 10:32:22;;;;;;;;;;;17.50;99.90;;;;;;5078963;28;19923;-92
2021/09/02 10:34:52;;;;;;;;;;;17.40;99.90;;;;;;5094009;28;19931;-91
2021/09/02 10:37:40;;;;;;;;;;;17.40;99.90;;;;;;5079205;28;19976;-92
2021/09/02 10:40:27;;;;;;;;;;;17.40;99.90;;;;;;5077920;28;20019;-92
2021/09/02 10:42:56;;;;;;;;;;;17.40;99.90;;;;;;5064889;28;19924;-92
2021/09/02 10:45:24;;;;;;;;;;;17.40;99.90;;;;;;5077743;28;19924;-91
2021/09/02 10:47:51;;;;;;;;;;;17.40;99.90;;;;;;5095614;28;19919;-91
2021/09/02 10:50:18;;;;;;;;;;;17.40;99.90;;;;;;5078281;28;20022;-91
2021/09/02 10:52:44;;;;;;;;;;;17.40;99.90;;;;;;5095397;28;19970;-92
2021/09/02 10:55:29;;;;;;;;;;;17.40;99.90;;;;;;5057530;28;19971;-92
2021/09/02 10:57:54;;;;;;;;;;;17.50;99.90;;;;;;5075730;28;19920;-92
2021/09/02 11:00:30;;;;;;;;;;;17.40;99.90;;;;;;5078043;28;19930;-91
2021/09/02 11:03:14;;;;;;;;;;;17.40;99.90;;;;;;5078429;28;19924;-92
2021/09/02 11:05:41;;;;;;;;;;;17.40;99.90;;;;;;5082309;28;19975;-92
2021/09/02 11:08:07;;;;;;;;;;;17.40;99.90;;;;;;5092386;28;20268;-91
2021/09/02 11:10:32;;;;;;;;;;;17.40;99.90;;;;;;5057746;28;19924;-91
2021/09/02 11:13:07;;;;;;;;;;;17.50;99.90;;;;;;5058555;28;19920;-91
2021/09/02 11:15:35;;;;;;;;;;;17.50;99.90;;;;;;5073685;28;19924;-91
2021/09/02 11:18:02;;;;;;;;;;;17.50;99.90;;;;;;5077977;28;20382;-91
2021/09/02 11:20:29;;;;;;;;;;;17.50;99.90;;;;;;5094616;28;20325;-91
2021/09/02 11:23:08;;;;;;;;;;;17.50;99.90;;;;;;5061387;28;19924;-90
2021/09/02 11:26:03;;;;;;;;;;;17.50;99.90;;;;;;5071061;28;20008;-92
2021/09/02 11:28:30;;;;;;;;;;;17.60;99.90;;;;;;5059571;28;20294;-91
2021/09/02 11:30:56;;;;;;;;;;;17.60;99.90;;;;;;5076816;28;19980;-92
2021/09/02 11:33:21;;;;;;;;;;;17.60;99.90;;;;;;5060810;28;19919;-91
2021/09/02 11:35:54;;;;;;;;;;;17.60;99.90;;;;;;5076268;28;20014;-92
2021/09/02 11:38:19;;;;;;;;;;;17.60;99.90;;;;;;5060745;28;19924;-91
2021/09/02 11:40:45;;;;;;;;;;;17.60;99.90;;;;;;5060715;28;19920;-91
2021/09/02 11:43:14;;;;;;;;;;;17.70;99.90;;;;;;5077884;28;19980;-92
2021/09/02 11:45:40;;;;;;;;;;;17.60;99.90;;;;;;5077282;28;19924;-91
2021/09/02 11:48:06;;;;;;;;;;;17.60;99.90;;;;;;5060340;28;19924;-93
2021/09/02 11:50:32;;;;;;;;;;;17.60;99.90;;;;;;5077485;28;19992;-93
2021/09/02 11:52:58;;;;;;;;;;;17.60;99.90;;;;;;5060567;28;20394;-92
2021/09/02 11:55:24;;;;;;;;;;;17.70;99.90;;;;;;5077270;28;19931;-91
2021/09/02 11:57:50;;;;;;;;;;;17.70;99.90;;;;;;5093575;28;19926;-91
2021/09/02 12:00:16;;;;;;;;;;;17.70;99.90;;;;;;5060191;28;19923;-91
2021/09/02 12:02:46;;;;;;;;;;;17.70;99.90;;;;;;5094178;28;20010;-92
2021/09/02 12:05:11;;;;;;;;;;;17.70;99.90;;;;;;5093289;28;19928;-92
2021/09/02 12:07:37;;;;;;;;;;;17.70;99.90;;;;;;5060183;28;19919;-90
2021/09/02 12:10:03;;;;;;;;;;;17.70;99.90;;;;;;5076626;28;20014;-91
2021/09/02 12:12:29;;;;;;;;;;;17.70;99.90;;;;;;5059999;28;20371;-92
2021/09/02 12:14:55;;;;;;;;;;;17.70;99.90;;;;;;5045499;28;19920;-91
2021/09/02 12:17:30;;;;;;;;;;;17.70;99.90;;;;;;5074038;28;20328;-92
2021/09/02 12:19:57;;;;;;;;;;;17.70;99.90;;;;;;5070775;28;19927;-92
2021/09/02 12:22:29;;;;;;;;;;;17.70;99.90;;;;;;5093170;28;19974;-91
2021/09/02 12:25:05;;;;;;;;;;;17.70;99.90;;;;;;5073916;28;19928;-92
2021/09/02 12:27:41;;;;;;;;;;;17.70;99.90;;;;;;5090449;28;19931;-92
2021/09/02 12:30:06;;;;;;;;;;;17.70;99.90;;;;;;5074833;28;19930;-92
2021/09/02 12:32:32;;;;;;;;;;;17.80;99.90;;;;;;5076568;28;19928;-91
2021/09/02 12:35:09;;;;;;;;;;;17.80;99.90;;;;;;5076160;28;20383;-92
2021/09/02 12:37:40;;;;;;;;;;;17.80;99.90;;;;;;5076447;28;19924;-92
2021/09/02 12:40:15;;;;;;;;;;;17.80;99.90;;;;;;5075603;28;20402;-92
2021/09/02 12:42:41;;;;;;;;;;;17.80;99.90;;;;;;5076421;28;20014;-91
2021/09/02 12:45:12;;;;;;;;;;;17.80;99.90;;;;;;5076552;28;19927;-91
2021/09/02 12:47:38;;;;;;;;;;;17.80;99.90;;;;;;5076036;28;19926;-92
2021/09/02 12:50:22;;;;;;;;;;;17.80;99.90;;;;;;5092809;28;20010;-92
2021/09/02 12:52:47;;;;;;;;;;;17.80;99.90;;;;;;5075695;28;19934;-92
2021/09/02 12:55:17;;;;;;;;;;;17.80;99.90;;;;;;5076425;28;20014;-92
2021/09/02 12:57:46;;;;;;;;;;;17.70;99.90;;;;;;5076661;28;19920;-91
2021/09/02 13:00:13;;;;;;;;;;;17.70;99.90;;;;;;5092166;28;19931;-92
2021/09/02 13:02:39;;;;;;;;;;;17.70;99.90;;;;;;5075893;28;19973;-92
2021/09/02 13:05:06;;;;;;;;;;;17.70;99.90;;;;;;5075938;28;19979;-92
2021/09/02 13:07:31;;;;;;;;;;;17.80;99.90;;;;;;5055777;28;19924;-91
2021/09/02 13:09:58;;;;;;;;;;;17.80;99.90;;;;;;5075627;28;19922;-93
2021/09/02 13:12:24;;;;;;;;;;;17.80;99.90;;;;;;5054804;28;19920;-91
2021/09/02 13:14:50;;;;;;;;;;;17.80;99.90;;;;;;5074691;28;19923;-92
2021/09/02 13:17:15;;;;;;;;;;;17.80;99.90;;;;;;5055747;28;19950;-92
2021/09/02 13:19:41;;;;;;;;;;;17.80;99.90;;;;;;5059139;28;19945;-91
2021/09/02 13:22:06;;;;;;;;;;;17.80;99.90;;;;;;5075059;28;19931;-91
2021/09/02 13:24:32;;;;;;;;;;;17.80;99.90;;;;;;5055365;28;19981;-91
2021/09/02 13:26:58;;;;;;;;;;;17.80;99.90;;;;;;5072511;28;19935;-91
2021/09/02 13:29:24;;;;;;;;;;;17.80;99.90;;;;;;5093131;28;19924;-92
2021/09/02 13:31:49;;;;;;;;;;;17.80;99.90;;;;;;5058326;28;20298;-92
2021/09/02 13:34:15;;;;;;;;;;;17.80;99.90;;;;;;5075549;28;20014;-92
2021/09/02 13:36:41;;;;;;;;;;;17.70;99.90;;;;;;5075936;28;19923;-91
2021/09/02 13:39:06;;;;;;;;;;;17.70;99.90;;;;;;5075354;28;19990;-92
2021/09/02 13:41:32;;;;;;;;;;;17.80;99.90;;;;;;5075702;28;19927;-92
2021/09/02 13:43:57;;;;;;;;;;;17.80;99.90;;;;;;5090583;28;20374;-90
2021/09/02 13:46:23;;;;;;;;;;;17.80;99.90;;;;;;5075425;28;19919;-91
2021/09/02 13:48:52;;;;;;;;;;;17.70;99.90;;;;;;5075418;28;19931;-91
2021/09/02 13:51:19;;;;;;;;;;;17.70;99.90;;;;;;5057671;28;19920;-90
2021/09/02 13:53:45;;;;;;;;;;;17.70;99.90;;;;;;5057980;28;20006;-92
2021/09/02 13:56:10;;;;;;;;;;;17.70;99.90;;;;;;5058613;28;20331;-92
2021/09/02 13:58:36;;;;;;;;;;;17.70;99.90;;;;;;5059333;28;19919;-92
2021/09/02 14:01:01;;;;;;;;;;;17.70;99.90;;;;;;5077341;28;19931;-92
2021/09/02 14:03:27;;;;;;;;;;;17.70;99.90;;;;;;5078744;28;20419;-92
2021/09/02 14:05:53;;;;;;;;;;;17.70;99.90;;;;;;5062468;28;20406;-92
2021/09/02 14:08:18;;;;;;;;;;;17.80;99.90;;;;;;5059409;28;20276;-91
2021/09/02 14:10:44;;;;;;;;;;;17.80;99.90;;;;;;5042349;28;19926;-92
2021/09/02 14:13:10;;;;;;;;;;;17.80;99.90;;;;;;5059593;28;19935;-91